createdAt,value
2022-08-20T00:01:02.337Z,1.83
2022-08-20T00:03:33.629Z,2.23
2022-08-20T00:06:04.947Z,2.07
2022-08-20T00:08:33.356Z,1.90
2022-08-20T00:11:02.238Z,1.80
2022-08-20T00:13:34.492Z,1.90
2022-08-20T00:16:02.622Z,1.70
2022-08-20T00:18:30.384Z,1.60
2022-08-20T00:20:59.340Z,1.87
2022-08-20T00:23:27.265Z,1.30
2022-08-20T00:25:55.293Z,1.60
2022-08-20T00:28:23.058Z,1.70
2022-08-20T00:30:52.355Z,1.80
2022-08-20T00:33:24.371Z,1.70
2022-08-20T00:35:56.347Z,2.30
2022-08-20T00:38:24.717Z,1.93
2022-08-20T00:40:55.700Z,1.50
2022-08-20T00:43:31.349Z,1.77
2022-08-20T00:46:02.822Z,1.80
2022-08-20T00:48:33.458Z,1.70
2022-08-20T00:51:05.601Z,2.00
2022-08-20T00:53:35.359Z,1.63
2022-08-20T00:56:03.267Z,1.70
2022-08-20T00:58:31.078Z,1.80
2022-08-20T01:01:00.810Z,1.80
2022-08-20T01:03:29.200Z,2.20
2022-08-20T01:05:57.729Z,1.80
2022-08-20T01:08:26.764Z,1.73
2022-08-20T01:11:07.232Z,1.93
2022-08-20T01:13:37.772Z,1.80
2022-08-20T01:16:14.673Z,1.57
2022-08-20T01:18:48.319Z,2.07
2022-08-20T01:21:18.932Z,1.70
2022-08-20T01:23:54.369Z,2.07
2022-08-20T01:26:27.176Z,1.97
2022-08-20T01:28:57.133Z,1.50
2022-08-20T01:31:28.022Z,1.90
2022-08-20T01:33:57.835Z,1.80
2022-08-20T01:36:31.581Z,1.70
2022-08-20T01:39:00.939Z,1.43
2022-08-20T01:41:48.503Z,1.80
2022-08-20T01:44:18.417Z,1.50
2022-08-20T01:46:49.318Z,1.50
2022-08-20T01:49:22.947Z,1.53
2022-08-20T01:51:52.418Z,1.70
2022-08-20T01:54:21.434Z,1.70
2022-08-20T01:56:57.946Z,1.73
2022-08-20T01:59:26.021Z,1.70
2022-08-20T02:01:54.222Z,2.07
2022-08-20T02:04:22.324Z,1.80
2022-08-20T02:06:56.768Z,1.80
2022-08-20T02:09:26.113Z,1.77
2022-08-20T02:11:55.347Z,1.80
2022-08-20T02:14:23.117Z,1.70
2022-08-20T02:16:55.231Z,1.87
2022-08-20T02:19:30.517Z,1.80
2022-08-20T02:22:00.993Z,1.53
2022-08-20T02:24:29.976Z,1.87
2022-08-20T02:26:59.117Z,1.80
2022-08-20T02:29:26.985Z,1.70
2022-08-20T02:32:24.508Z,1.60
2022-08-20T02:34:43.110Z,1.60
2022-08-20T02:37:11.670Z,1.83
2022-08-20T02:39:39.414Z,1.83
2022-08-20T02:42:09.347Z,1.60
2022-08-20T02:44:37.110Z,2.00
2022-08-20T02:47:05.549Z,2.03
2022-08-20T02:49:35.039Z,2.03
2022-08-20T02:52:02.860Z,1.93
2022-08-20T02:54:30.575Z,2.00
2022-08-20T02:56:58.287Z,1.87
2022-08-20T02:59:27.345Z,1.87
2022-08-20T03:01:59.191Z,2.03
2022-08-20T03:04:29.039Z,2.10
2022-08-20T03:06:56.980Z,1.80
2022-08-20T03:09:25.004Z,1.73
2022-08-20T03:11:52.893Z,2.00
2022-08-20T03:14:20.706Z,1.80
2022-08-20T03:16:49.865Z,2.20
2022-08-20T03:19:17.681Z,2.03
2022-08-20T03:21:45.421Z,2.40
2022-08-20T03:24:13.181Z,1.90
2022-08-20T03:26:41.077Z,1.97
2022-08-20T03:29:09.286Z,2.00
2022-08-20T03:31:36.993Z,2.20
2022-08-20T03:34:06.070Z,2.47
2022-08-20T03:36:34.033Z,1.93
2022-08-20T03:39:03.923Z,2.47
2022-08-20T03:41:32.572Z,2.57
2022-08-20T03:44:00.302Z,2.43
2022-08-20T03:46:28.806Z,2.40
2022-08-20T03:49:00.538Z,2.37
2022-08-20T03:51:31.190Z,2.63
2022-08-20T03:53:59.829Z,2.33
2022-08-20T03:56:27.828Z,2.40
2022-08-20T03:58:55.726Z,2.83
2022-08-20T04:01:45.335Z,2.70
2022-08-20T04:04:12.048Z,2.67
2022-08-20T04:06:42.405Z,3.00
2022-08-20T04:09:11.713Z,2.80
2022-08-20T04:11:40.052Z,3.43
2022-08-20T04:14:09.289Z,2.83
2022-08-20T04:16:39.398Z,3.17
2022-08-20T04:19:07.457Z,3.30
2022-08-20T04:21:36.771Z,3.37
2022-08-20T04:24:07.206Z,3.17
2022-08-20T04:26:37.224Z,3.00
2022-08-20T04:29:05.513Z,3.57
2022-08-20T04:31:34.743Z,4.03
2022-08-20T04:34:03.143Z,3.50
2022-08-20T04:36:31.329Z,3.20
2022-08-20T04:38:59.126Z,3.50
2022-08-20T04:41:28.386Z,3.40
2022-08-20T04:43:58.205Z,3.60
2022-08-20T04:46:28.869Z,3.40
2022-08-20T04:48:58.253Z,3.50
2022-08-20T04:51:26.832Z,3.77
2022-08-20T04:53:56.396Z,3.47
2022-08-20T04:56:27.295Z,3.63
2022-08-20T04:58:58.273Z,3.93
2022-08-20T05:01:27.268Z,3.97
2022-08-20T05:03:55.940Z,4.00
2022-08-20T05:06:28.555Z,3.93
2022-08-20T05:08:57.899Z,4.13
2022-08-20T05:11:34.390Z,4.10
2022-08-20T05:14:05.474Z,4.07
2022-08-20T05:16:37.811Z,4.10
2022-08-20T05:19:06.455Z,3.80
2022-08-20T05:21:34.347Z,4.20
2022-08-20T05:24:02.908Z,4.00
2022-08-20T05:26:30.703Z,3.87
2022-08-20T05:28:59.484Z,4.13
2022-08-20T05:31:31.889Z,4.40
2022-08-20T05:34:01.489Z,4.40
2022-08-20T05:36:29.310Z,3.93
2022-08-20T05:38:57.172Z,4.10
2022-08-20T05:41:28.672Z,4.33
2022-08-20T05:43:58.225Z,3.70
2022-08-20T05:46:26.033Z,3.80
2022-08-20T05:48:55.145Z,4.63
2022-08-20T05:51:27.378Z,4.23
2022-08-20T05:53:55.086Z,4.57
2022-08-20T05:56:27.068Z,4.17
2022-08-20T05:58:55.527Z,4.20
2022-08-20T06:01:23.765Z,3.97
2022-08-20T06:04:08.760Z,4.00
2022-08-20T06:06:45.269Z,4.20
2022-08-20T06:09:14.667Z,4.47
2022-08-20T06:11:42.378Z,4.20
2022-08-20T06:14:10.123Z,4.23
2022-08-20T06:16:37.862Z,4.60
2022-08-20T06:19:06.488Z,4.07
2022-08-20T06:21:41.051Z,4.33
2022-08-20T06:24:09.049Z,4.00
2022-08-20T06:26:36.911Z,4.10
2022-08-20T06:29:06.753Z,4.30
2022-08-20T06:31:35.035Z,4.33
2022-08-20T06:34:02.928Z,4.30
2022-08-20T06:36:30.789Z,4.57
2022-08-20T06:39:00.098Z,4.17
2022-08-20T06:41:36.267Z,4.60
2022-08-20T06:44:05.276Z,4.20
2022-08-20T06:46:33.244Z,4.30
2022-08-20T06:49:01.125Z,4.50
2022-08-20T06:51:29.279Z,4.27
2022-08-20T06:53:57.084Z,4.30
2022-08-20T06:56:26.451Z,3.83
2022-08-20T06:58:54.285Z,3.97
2022-08-20T07:01:22.261Z,3.87
2022-08-20T07:03:55.483Z,4.27
2022-08-20T07:06:25.061Z,4.13
2022-08-20T07:08:52.972Z,3.77
2022-08-20T07:11:27.368Z,4.10
2022-08-20T07:13:58.314Z,4.20
2022-08-20T07:16:26.415Z,4.30
2022-08-20T07:18:54.543Z,3.97
2022-08-20T07:21:22.455Z,4.50
2022-08-20T07:23:50.406Z,3.70
2022-08-20T07:26:18.410Z,4.20
2022-08-20T07:28:46.743Z,3.93
2022-08-20T07:31:34.862Z,3.87
2022-08-20T07:34:03.391Z,3.80
2022-08-20T07:36:31.592Z,3.60
2022-08-20T07:39:05.976Z,4.10
2022-08-20T07:41:34.363Z,4.40
2022-08-20T07:44:02.436Z,3.87
2022-08-20T07:46:32.299Z,4.00
2022-08-20T07:49:00.702Z,4.10
2022-08-20T07:51:28.750Z,3.53
2022-08-20T07:53:58.168Z,4.43
2022-08-20T07:56:26.618Z,3.93
2022-08-20T07:58:59.901Z,3.80
2022-08-20T08:01:30.619Z,3.93
2022-08-20T08:04:00.899Z,3.33
2022-08-20T08:06:31.662Z,3.70
2022-08-20T08:09:05.286Z,3.33
2022-08-20T08:11:35.795Z,3.47
2022-08-20T08:14:05.328Z,3.70
2022-08-20T08:16:35.411Z,4.07
2022-08-20T08:19:07.270Z,3.93
2022-08-20T08:21:35.151Z,3.90
2022-08-20T08:24:03.209Z,3.57
2022-08-20T08:26:31.261Z,3.60
2022-08-20T08:28:59.097Z,4.07
2022-08-20T08:31:27.639Z,3.10
2022-08-20T08:33:55.796Z,3.80
2022-08-20T08:36:26.349Z,3.33
2022-08-20T08:38:56.518Z,4.07
2022-08-20T08:41:29.964Z,3.60
2022-08-20T08:44:04.690Z,3.20
2022-08-20T08:46:36.700Z,3.37
2022-08-20T08:49:05.044Z,3.37
2022-08-20T08:51:41.451Z,3.97
2022-08-20T08:54:10.775Z,3.60
2022-08-20T08:56:38.566Z,3.60
2022-08-20T08:59:08.762Z,3.17
2022-08-20T09:01:53.780Z,2.97
2022-08-20T09:04:29.128Z,3.90
2022-08-20T09:06:58.903Z,3.00
2022-08-20T09:09:29.891Z,3.43
2022-08-20T09:12:05.168Z,3.73
2022-08-20T09:14:33.070Z,3.50
2022-08-20T09:17:01.025Z,3.60
2022-08-20T09:19:28.875Z,3.57
2022-08-20T09:21:58.319Z,3.30
2022-08-20T09:24:26.620Z,3.33
2022-08-20T09:26:54.412Z,3.13
2022-08-20T09:29:22.706Z,3.80
2022-08-20T09:31:51.558Z,3.37
2022-08-20T09:34:20.359Z,3.60
2022-08-20T09:36:48.125Z,2.57
2022-08-20T09:39:17.299Z,2.63
2022-08-20T09:41:45.074Z,2.97
2022-08-20T09:44:12.817Z,2.33
2022-08-20T09:46:40.610Z,2.50
2022-08-20T09:49:08.918Z,2.50
2022-08-20T09:51:38.598Z,2.40
2022-08-20T09:54:06.741Z,2.20
2022-08-20T09:56:36.697Z,2.27
2022-08-20T09:59:07.306Z,1.97
2022-08-20T10:01:35.359Z,2.30
2022-08-20T10:04:03.433Z,2.00
2022-08-20T10:06:35.781Z,1.63
2022-08-20T10:09:05.662Z,1.50
2022-08-20T10:11:34.933Z,1.50
2022-08-20T10:14:02.724Z,1.47
2022-08-20T10:16:30.739Z,1.33
2022-08-20T10:18:58.748Z,1.50
2022-08-20T10:21:26.485Z,1.40
2022-08-20T10:23:54.318Z,1.60
2022-08-20T10:26:22.169Z,2.40
2022-08-20T10:28:51.238Z,2.30
2022-08-20T10:31:19.090Z,1.80
2022-08-20T10:33:47.009Z,1.70
2022-08-20T10:36:17.568Z,1.50
2022-08-20T10:38:46.064Z,1.27
2022-08-20T10:41:13.823Z,1.73
2022-08-20T10:43:41.656Z,1.40
2022-08-20T10:46:10.975Z,1.20
2022-08-20T10:48:39.231Z,1.00
2022-08-20T10:51:07.849Z,1.17
2022-08-20T10:53:36.732Z,0.83
2022-08-20T10:56:04.824Z,0.93
2022-08-20T10:58:39.499Z,1.10
2022-08-20T11:01:11.274Z,1.40
2022-08-20T11:03:39.082Z,1.43
2022-08-20T11:06:07.193Z,1.27
2022-08-20T11:08:35.893Z,1.30
2022-08-20T11:11:04.873Z,1.30
2022-08-20T11:13:32.892Z,1.30
2022-08-20T11:16:01.677Z,1.20
2022-08-20T11:18:31.709Z,0.90
2022-08-20T11:20:59.575Z,1.30
2022-08-20T11:23:27.972Z,1.13
2022-08-20T11:25:58.348Z,0.80
2022-08-20T11:28:31.157Z,0.87
2022-08-20T11:31:00.202Z,0.97
2022-08-20T11:33:27.985Z,1.00
2022-08-20T11:35:57.244Z,0.83
2022-08-20T11:38:25.270Z,0.87
2022-08-20T11:40:53.034Z,0.90
2022-08-20T11:43:20.759Z,0.70
2022-08-20T11:45:50.867Z,1.10
2022-08-20T11:48:18.899Z,0.93
2022-08-20T11:50:46.786Z,0.90
2022-08-20T11:53:16.169Z,0.80
2022-08-20T11:55:44.510Z,0.73
2022-08-20T11:58:12.498Z,1.13
2022-08-20T12:00:40.210Z,1.00
2022-08-20T12:03:10.280Z,0.80
2022-08-20T12:05:40.195Z,1.10
2022-08-20T12:08:08.423Z,1.00
2022-08-20T12:10:38.159Z,1.20
2022-08-20T12:13:06.561Z,1.00
2022-08-20T12:15:35.003Z,0.80
2022-08-20T12:18:06.609Z,1.27
2022-08-20T12:20:34.995Z,1.00
2022-08-20T12:23:02.806Z,1.00
2022-08-20T12:25:30.723Z,1.63
2022-08-20T12:28:00.514Z,0.90
2022-08-20T12:30:28.419Z,1.00
2022-08-20T12:32:56.264Z,1.10
2022-08-20T12:35:24.511Z,1.10
2022-08-20T12:37:52.494Z,1.00
2022-08-20T12:40:31.809Z,1.07
2022-08-20T12:43:04.220Z,1.03
2022-08-20T12:45:33.901Z,1.10
2022-08-20T12:48:03.927Z,1.10
2022-08-20T12:50:32.130Z,1.10
2022-08-20T12:53:00.631Z,1.20
2022-08-20T12:55:28.792Z,1.10
2022-08-20T12:58:00.326Z,1.10
2022-08-20T13:00:32.671Z,1.00
2022-08-20T13:03:02.649Z,1.10
2022-08-20T13:05:31.295Z,0.90
2022-08-20T13:07:59.693Z,0.97
2022-08-20T13:10:30.319Z,1.17
2022-08-20T13:12:58.658Z,1.40
2022-08-20T13:15:26.686Z,1.60
2022-08-20T13:17:57.734Z,1.60
2022-08-20T13:20:34.143Z,1.43
2022-08-20T13:23:03.712Z,1.90
2022-08-20T13:25:32.338Z,1.57
2022-08-20T13:28:02.309Z,1.97
2022-08-20T13:30:30.175Z,1.70
2022-08-20T13:32:59.271Z,1.80
2022-08-20T13:35:27.084Z,1.70
2022-08-20T13:37:54.886Z,2.13
2022-08-20T13:40:22.968Z,1.90
2022-08-20T13:42:50.873Z,1.93
2022-08-20T13:45:19.062Z,1.80
2022-08-20T13:47:47.114Z,2.03
2022-08-20T13:50:19.171Z,1.50
2022-08-20T13:52:47.658Z,2.37
2022-08-20T13:55:18.418Z,1.73
2022-08-20T13:57:47.403Z,1.90
2022-08-20T14:00:19.136Z,2.63
2022-08-20T14:02:47.417Z,2.20
2022-08-20T14:05:18.394Z,1.57
2022-08-20T14:07:48.017Z,2.00
2022-08-20T14:10:20.555Z,2.00
2022-08-20T14:12:53.808Z,1.67
2022-08-20T14:15:21.638Z,2.03
2022-08-20T14:17:52.502Z,2.30
2022-08-20T14:20:23.862Z,1.77
2022-08-20T14:22:52.041Z,1.93
2022-08-20T14:25:22.159Z,1.53
2022-08-20T14:27:50.678Z,1.60
2022-08-20T14:30:22.061Z,2.00
2022-08-20T14:32:50.100Z,1.60
2022-08-20T14:35:18.293Z,1.90
2022-08-20T14:37:52.072Z,2.00
2022-08-20T14:40:22.445Z,1.80
2022-08-20T14:42:54.576Z,1.43
2022-08-20T14:45:23.464Z,1.70
2022-08-20T14:47:54.742Z,1.33
2022-08-20T14:50:26.114Z,1.20
2022-08-20T14:52:56.117Z,1.80
2022-08-20T14:55:26.789Z,1.63
2022-08-20T14:57:55.876Z,1.60
2022-08-20T15:00:25.421Z,1.60
2022-08-20T15:02:53.308Z,1.43
2022-08-20T15:05:21.321Z,1.50
2022-08-20T15:07:51.870Z,1.70
2022-08-20T15:10:26.059Z,1.43
2022-08-20T15:12:54.356Z,1.53
2022-08-20T15:15:22.861Z,1.57
2022-08-20T15:17:53.910Z,1.50
2022-08-20T15:20:24.630Z,1.77
2022-08-20T15:22:52.782Z,1.50
2022-08-20T15:25:25.330Z,1.50
2022-08-20T15:27:58.393Z,1.80
2022-08-20T15:30:31.073Z,2.20
2022-08-20T15:32:59.316Z,1.83
2022-08-20T15:35:28.928Z,1.83
2022-08-20T15:37:59.030Z,1.87
2022-08-20T15:40:31.696Z,1.40
2022-08-20T15:43:00.894Z,1.70
2022-08-20T15:45:28.956Z,1.90
2022-08-20T15:48:02.651Z,1.70
2022-08-20T15:50:51.820Z,1.70
2022-08-20T15:53:26.955Z,1.70
2022-08-20T15:56:04.323Z,1.67
2022-08-20T15:58:40.628Z,1.90
2022-08-20T16:01:25.170Z,1.37
2022-08-20T16:04:35.024Z,1.60
2022-08-20T16:07:11.149Z,1.60
2022-08-20T16:09:54.553Z,2.00
2022-08-20T16:12:32.564Z,1.60
2022-08-20T16:15:03.401Z,1.47
2022-08-20T16:17:36.032Z,1.60
2022-08-20T16:20:09.627Z,1.20
2022-08-20T16:22:44.590Z,1.50
2022-08-20T16:25:14.539Z,1.30
2022-08-20T16:27:53.336Z,1.40
2022-08-20T16:30:26.149Z,1.50
2022-08-20T16:33:00.975Z,1.27
2022-08-20T16:35:33.339Z,1.30
2022-08-20T16:38:07.444Z,1.63
2022-08-20T16:40:44.202Z,1.80
2022-08-20T16:43:25.095Z,1.70
2022-08-20T16:45:56.742Z,1.70
2022-08-20T16:48:33.628Z,1.80
2022-08-20T16:51:06.382Z,1.90
2022-08-20T16:53:34.332Z,1.70
2022-08-20T16:56:02.312Z,1.60
2022-08-20T16:58:31.642Z,1.50
2022-08-20T17:01:09.644Z,1.40
2022-08-20T17:03:39.893Z,1.50
2022-08-20T17:06:18.144Z,1.50
2022-08-20T17:08:49.685Z,1.53
2022-08-20T17:11:25.617Z,1.50
2022-08-20T17:14:05.555Z,1.47
2022-08-20T17:16:37.470Z,1.50
2022-08-20T17:19:12.563Z,1.60
2022-08-20T17:21:42.063Z,1.70
2022-08-20T17:24:24.507Z,1.80
2022-08-20T17:26:59.336Z,1.97
2022-08-20T17:29:30.901Z,1.50
2022-08-20T17:32:01.471Z,1.57
2022-08-20T17:34:31.613Z,1.70
2022-08-20T17:37:03.963Z,1.90
2022-08-20T17:39:32.654Z,2.63
2022-08-20T17:42:08.164Z,1.67
2022-08-20T17:44:42.240Z,1.40
2022-08-20T17:47:16.015Z,1.30
2022-08-20T17:49:53.261Z,1.30
2022-08-20T17:52:35.625Z,1.40
2022-08-20T17:55:04.573Z,1.70
2022-08-20T17:57:38.819Z,2.00
2022-08-20T18:00:14.723Z,1.80
2022-08-20T18:02:42.899Z,1.80
2022-08-20T18:05:16.392Z,1.97
2022-08-20T18:08:08.767Z,2.00
2022-08-20T18:10:44.533Z,2.20
2022-08-20T18:13:19.401Z,1.80
2022-08-20T18:15:54.776Z,2.13
2022-08-20T18:18:32.135Z,2.10
2022-08-20T18:21:24.599Z,2.17
2022-08-20T18:23:57.157Z,1.73
2022-08-20T18:26:30.400Z,2.20
2022-08-20T18:29:03.738Z,2.00
2022-08-20T18:31:35.574Z,2.27
2022-08-20T18:34:12.106Z,1.80
2022-08-20T18:36:41.464Z,2.00
2022-08-20T18:39:24.165Z,2.30
2022-08-20T18:42:00.123Z,1.70
2022-08-20T18:44:30.267Z,2.20
2022-08-20T18:47:02.597Z,2.33
2022-08-20T18:49:34.129Z,2.30
2022-08-20T18:52:11.412Z,2.17
2022-08-20T18:54:42.169Z,2.50
2022-08-20T18:57:21.435Z,1.97
2022-08-20T18:59:53.573Z,2.33
2022-08-20T19:02:26.951Z,2.40
2022-08-20T19:05:02.381Z,2.60
2022-08-20T19:07:45.840Z,2.10
2022-08-20T19:10:28.796Z,1.80
2022-08-20T19:13:16.438Z,2.10
2022-08-20T19:15:47.275Z,2.00
2022-08-20T19:18:25.127Z,2.20
2022-08-20T19:20:57.434Z,2.37
2022-08-20T19:23:29.922Z,2.03
2022-08-20T19:26:01.101Z,2.10
2022-08-20T19:28:31.474Z,2.27
2022-08-20T19:31:10.900Z,2.37
2022-08-20T19:33:43.977Z,2.17
2022-08-20T19:36:15.250Z,1.80
2022-08-20T19:38:45.408Z,2.10
2022-08-20T19:41:26.724Z,2.33
2022-08-20T19:44:00.051Z,1.80
2022-08-20T19:46:31.809Z,2.33
2022-08-20T19:49:15.338Z,2.60
2022-08-20T19:51:54.880Z,2.53
2022-08-20T19:54:26.146Z,2.67
2022-08-20T19:56:58.366Z,1.90
2022-08-20T19:59:26.989Z,2.03
2022-08-20T20:02:00.331Z,1.93
2022-08-20T20:04:37.184Z,2.17
2022-08-20T20:07:09.637Z,2.20
2022-08-20T20:09:42.245Z,2.30
2022-08-20T20:12:21.556Z,2.10
2022-08-20T20:14:52.584Z,1.93
2022-08-20T20:17:23.628Z,2.17
2022-08-20T20:19:56.830Z,2.50
2022-08-20T20:22:27.833Z,2.20
2022-08-20T20:25:03.756Z,2.30
2022-08-20T20:27:33.353Z,2.60
2022-08-20T20:30:03.100Z,2.03
2022-08-20T20:32:33.702Z,1.90
2022-08-20T20:35:05.181Z,1.70
2022-08-20T20:37:49.696Z,1.93
2022-08-20T20:40:25.683Z,2.50
2022-08-20T20:43:04.626Z,2.20
2022-08-20T20:45:36.720Z,2.43
2022-08-20T20:48:18.001Z,2.47
2022-08-20T20:50:48.404Z,2.10
2022-08-20T20:53:31.426Z,1.83
2022-08-20T20:56:28.088Z,2.00
2022-08-20T20:58:56.238Z,2.10
2022-08-20T21:01:27.207Z,1.90
2022-08-20T21:04:11.948Z,2.10
2022-08-20T21:06:41.007Z,2.13
2022-08-20T21:09:08.740Z,2.20
2022-08-20T21:11:37.256Z,2.20
2022-08-20T21:14:05.107Z,2.40
2022-08-20T21:16:32.905Z,1.60
2022-08-20T21:19:00.812Z,2.83
2022-08-20T21:21:28.575Z,2.13
2022-08-20T21:23:58.035Z,2.30
2022-08-20T21:26:26.403Z,2.00
2022-08-20T21:28:55.526Z,2.37
2022-08-20T21:31:24.893Z,2.00
2022-08-20T21:33:52.653Z,2.20
2022-08-20T21:36:20.504Z,2.00
2022-08-20T21:38:49.759Z,2.63
2022-08-20T21:41:19.055Z,2.33
2022-08-20T21:43:57.458Z,2.10
2022-08-20T21:46:25.951Z,2.10
2022-08-20T21:48:53.632Z,2.60
2022-08-20T21:51:21.491Z,2.77
2022-08-20T21:53:49.437Z,2.70
2022-08-20T21:56:19.173Z,2.20
2022-08-20T21:58:48.113Z,2.60
2022-08-20T22:01:16.810Z,2.50
2022-08-20T22:03:44.619Z,2.63
2022-08-20T22:06:16.632Z,2.50
2022-08-20T22:08:44.466Z,2.20
2022-08-20T22:11:12.637Z,3.20
2022-08-20T22:13:42.429Z,2.50
2022-08-20T22:16:12.750Z,2.80
2022-08-20T22:18:40.536Z,2.60
2022-08-20T22:21:11.644Z,2.53
2022-08-20T22:23:40.090Z,2.80
2022-08-20T22:26:08.523Z,2.70
2022-08-20T22:28:36.681Z,2.73
2022-08-20T22:31:06.844Z,2.93
2022-08-20T22:33:36.007Z,2.90
2022-08-20T22:36:06.818Z,2.87
2022-08-20T22:38:34.783Z,3.13
2022-08-20T22:41:06.305Z,2.53
2022-08-20T22:43:36.828Z,2.50
2022-08-20T22:46:16.602Z,2.67
2022-08-20T22:48:44.434Z,2.13
2022-08-20T22:51:21.929Z,2.43
2022-08-20T22:53:50.825Z,3.00
2022-08-20T22:56:21.663Z,2.33
2022-08-20T22:58:50.099Z,3.20
2022-08-20T23:01:20.919Z,2.57
2022-08-20T23:03:48.697Z,2.70
2022-08-20T23:06:16.486Z,2.50
2022-08-20T23:08:45.413Z,3.17
2022-08-20T23:11:14.060Z,2.80
2022-08-20T23:13:41.887Z,2.90
2022-08-20T23:16:09.697Z,2.90
2022-08-20T23:18:38.922Z,3.30
2022-08-20T23:21:07.272Z,2.60
2022-08-20T23:23:35.415Z,2.50
2022-08-20T23:26:03.474Z,2.57
2022-08-20T23:28:31.278Z,3.30
2022-08-20T23:30:59.429Z,2.90
2022-08-20T23:33:27.298Z,2.67
2022-08-20T23:35:56.880Z,2.97
2022-08-20T23:38:25.027Z,2.50
2022-08-20T23:40:52.753Z,3.10
2022-08-20T23:43:20.484Z,2.67
2022-08-20T23:45:48.281Z,3.13
2022-08-20T23:48:16.013Z,2.30
2022-08-20T23:50:43.749Z,2.73
2022-08-20T23:53:12.950Z,2.50
2022-08-20T23:55:40.705Z,3.30
2022-08-20T23:58:09.212Z,2.70
